UAE7LT OMDB-DTTA
Flight info
| Callsign | UAE7LT |
|---|---|
| Flight time | N/A |
| Altitude | 36000 |
| Route | SENP2F SENPA N571 ALPOB L768 VATIM L550 RUKET/N0496F380 L550 NOVPA N697 MENLI L677 CVO L617 NABSI M872 METRU UP868 ARLOS DCT DIRKA DCT TOVMA DCT DINUX DCT SONAK R781 DIDON |
| Aircraft | A359/H-SDE2E3GHIJ1J3J4J5LM1ORWXYZ/LB1D1 |
Departure
| Time | 2026-04-21 17:46 |
|---|---|
| Airport | Dubai International Airport (OMDB) |
Arrival
| Time | N/A |
|---|---|
| Airport | Tunis Carthage International Airport (DTTA) |
| Time | Latitude | Longitude | Altitude | Speed | Heading |
|---|---|---|---|---|---|
| 2026-04-21 16:58 | 25.24801 | 55.36438 | 27 ft | 0 kts | 211° |
| 2026-04-21 17:32 | 25.24804 | 55.36440 | 19 ft | 3 kts | 211° |
| 2026-04-21 17:32 | 25.24835 | 55.36460 | 19 ft | 4 kts | 211° |
| 2026-04-21 17:32 | 25.24854 | 55.36474 | 26 ft | 4 kts | 206° |
| 2026-04-21 17:32 | 25.24878 | 55.36479 | 25 ft | 4 kts | 162° |
| 2026-04-21 17:33 | 25.24900 | 55.36465 | 25 ft | 4 kts | 129° |
| 2026-04-21 17:33 | 25.24914 | 55.36441 | 26 ft | 4 kts | 122° |
| 2026-04-21 17:33 | 25.24924 | 55.36424 | 27 ft | 0 kts | 122° |
| 2026-04-21 17:38 | 25.24922 | 55.36429 | 26 ft | 2 kts | 122° |
| 2026-04-21 17:38 | 25.24902 | 55.36463 | 25 ft | 7 kts | 122° |
| 2026-04-21 17:38 | 25.24874 | 55.36514 | 24 ft | 8 kts | 122° |
| 2026-04-21 17:38 | 25.24847 | 55.36562 | 27 ft | 8 kts | 122° |
| 2026-04-21 17:39 | 25.24817 | 55.36615 | 26 ft | 8 kts | 117° |
| 2026-04-21 17:39 | 25.24794 | 55.36679 | 27 ft | 10 kts | 111° |
| 2026-04-21 17:39 | 25.24771 | 55.36750 | 28 ft | 10 kts | 102° |
| 2026-04-21 17:39 | 25.24759 | 55.36827 | 27 ft | 10 kts | 105° |
| 2026-04-21 17:40 | 25.24724 | 55.36900 | 27 ft | 11 kts | 121° |
| 2026-04-21 17:40 | 25.24682 | 55.36975 | 27 ft | 12 kts | 121° |
| 2026-04-21 17:40 | 25.24637 | 55.37054 | 27 ft | 12 kts | 123° |
| 2026-04-21 17:40 | 25.24589 | 55.37137 | 27 ft | 13 kts | 122° |
| 2026-04-21 17:41 | 25.24538 | 55.37224 | 27 ft | 14 kts | 122° |
| 2026-04-21 17:41 | 25.24488 | 55.37317 | 27 ft | 14 kts | 120° |
| 2026-04-21 17:41 | 25.24439 | 55.37414 | 27 ft | 15 kts | 109° |
| 2026-04-21 17:41 | 25.24426 | 55.37525 | 27 ft | 15 kts | 94° |
| 2026-04-21 17:42 | 25.24416 | 55.37634 | 27 ft | 11 kts | 108° |
| 2026-04-21 17:42 | 25.24381 | 55.37698 | 27 ft | 10 kts | 113° |
| 2026-04-21 17:42 | 25.24399 | 55.37757 | 27 ft | 8 kts | 41° |
| 2026-04-21 17:42 | 25.24446 | 55.37791 | 28 ft | 8 kts | 34° |
| 2026-04-21 17:43 | 25.24490 | 55.37824 | 31 ft | 8 kts | 34° |
| 2026-04-21 17:43 | 25.24536 | 55.37858 | 30 ft | 8 kts | 34° |
| 2026-04-21 17:43 | 25.24586 | 55.37895 | 29 ft | 10 kts | 34° |
| 2026-04-21 17:43 | 25.24646 | 55.37940 | 29 ft | 11 kts | 34° |
| 2026-04-21 17:44 | 25.24709 | 55.37987 | 28 ft | 10 kts | 34° |
| 2026-04-21 17:44 | 25.24727 | 55.38000 | 30 ft | 1 kts | 34° |
| 2026-04-21 17:44 | 25.24728 | 55.38000 | 30 ft | 2 kts | 34° |
| 2026-04-21 17:44 | 25.24757 | 55.38018 | 31 ft | 6 kts | 19° |
| 2026-04-21 17:45 | 25.24810 | 55.38009 | 31 ft | 9 kts | 331° |
| 2026-04-21 17:45 | 25.24846 | 55.37954 | 31 ft | 9 kts | 301° |
| 2026-04-21 17:45 | 25.24915 | 55.37830 | 32 ft | 40 kts | 301° |
| 2026-04-21 17:45 | 25.25169 | 55.37373 | 33 ft | 98 kts | 301° |
| 2026-04-21 17:46 | 25.25619 | 55.36559 | 31 ft | 148 kts | 301° |
| 2026-04-21 17:46 | 25.26232 | 55.35456 | 169 ft | 178 kts | 300° |
| 2026-04-21 17:46 | 25.26816 | 55.34312 | 829 ft | 168 kts | 301° |
| 2026-04-21 17:46 | 25.27368 | 55.33148 | 1282 ft | 177 kts | 300° |
| 2026-04-21 17:47 | 25.27968 | 55.31906 | 1687 ft | 188 kts | 303° |
| 2026-04-21 17:47 | 25.28680 | 55.30701 | 2096 ft | 187 kts | 308° |
| 2026-04-21 17:47 | 25.29360 | 55.29499 | 2449 ft | 190 kts | 297° |
| 2026-04-21 17:47 | 25.29671 | 55.28071 | 2779 ft | 193 kts | 279° |
| 2026-04-21 17:48 | 25.29767 | 55.27067 | 2996 ft | 194 kts | 276° |
| 2026-04-21 17:48 | 25.29920 | 55.25044 | 3309 ft | 205 kts | 276° |
| 2026-04-21 17:48 | 25.30042 | 55.23450 | 3474 ft | 217 kts | 276° |
| 2026-04-21 17:48 | 25.30180 | 55.21745 | 3624 ft | 230 kts | 275° |
| 2026-04-21 17:49 | 25.30319 | 55.19944 | 3878 ft | 240 kts | 275° |
| 2026-04-21 17:49 | 25.30386 | 55.18085 | 4033 ft | 244 kts | 268° |
| 2026-04-21 17:49 | 25.30270 | 55.16167 | 4214 ft | 257 kts | 265° |
| 2026-04-21 17:49 | 25.30111 | 55.14156 | 4464 ft | 267 kts | 265° |
| 2026-04-21 17:50 | 25.29946 | 55.12094 | 4875 ft | 271 kts | 265° |
| 2026-04-21 17:50 | 25.29784 | 55.10024 | 5365 ft | 270 kts | 264° |
| 2026-04-21 17:50 | 25.29622 | 55.07947 | 5818 ft | 273 kts | 264° |
| 2026-04-21 17:50 | 25.29460 | 55.05856 | 6294 ft | 273 kts | 264° |
| 2026-04-21 17:51 | 25.29297 | 55.03757 | 6748 ft | 275 kts | 264° |
| 2026-04-21 17:51 | 25.29135 | 55.01654 | 7214 ft | 275 kts | 264° |
| 2026-04-21 17:51 | 25.28971 | 54.99542 | 7675 ft | 277 kts | 264° |
| 2026-04-21 17:51 | 25.28806 | 54.97418 | 8157 ft | 277 kts | 263° |
| 2026-04-21 17:52 | 25.28641 | 54.95296 | 8653 ft | 277 kts | 263° |
| 2026-04-21 17:52 | 25.28503 | 54.93169 | 9135 ft | 278 kts | 266° |
| 2026-04-21 17:52 | 25.28464 | 54.91751 | 9462 ft | 279 kts | 267° |
| 2026-04-21 17:52 | 25.28422 | 54.89606 | 9952 ft | 280 kts | 266° |
| 2026-04-21 17:53 | 25.28373 | 54.87442 | 10277 ft | 286 kts | 266° |
| 2026-04-21 17:53 | 25.28315 | 54.85205 | 10468 ft | 297 kts | 266° |
| 2026-04-21 17:53 | 25.28253 | 54.82887 | 10680 ft | 307 kts | 266° |
| 2026-04-21 17:53 | 25.28186 | 54.80489 | 10875 ft | 317 kts | 266° |
| 2026-04-21 17:54 | 25.28113 | 54.78015 | 11069 ft | 327 kts | 266° |
| 2026-04-21 17:54 | 25.28076 | 54.75470 | 11250 ft | 337 kts | 270° |
| 2026-04-21 17:54 | 25.28444 | 54.72864 | 11434 ft | 349 kts | 282° |
| 2026-04-21 17:54 | 25.29088 | 54.70245 | 11636 ft | 357 kts | 283° |
| 2026-04-21 17:55 | 25.29773 | 54.67593 | 11961 ft | 360 kts | 283° |
| 2026-04-21 17:55 | 25.30461 | 54.64921 | 12328 ft | 362 kts | 283° |
| 2026-04-21 17:55 | 25.31147 | 54.62234 | 12719 ft | 364 kts | 283° |
| 2026-04-21 17:55 | 25.31829 | 54.59548 | 13193 ft | 362 kts | 283° |
| 2026-04-21 17:56 | 25.32508 | 54.56863 | 13594 ft | 364 kts | 283° |
| 2026-04-21 17:56 | 25.33189 | 54.54165 | 13925 ft | 365 kts | 283° |
| 2026-04-21 17:56 | 25.33881 | 54.51454 | 14256 ft | 367 kts | 284° |
| 2026-04-21 17:56 | 25.34605 | 54.48744 | 14585 ft | 369 kts | 284° |
| 2026-04-21 17:57 | 25.35348 | 54.46026 | 14896 ft | 371 kts | 284° |
| 2026-04-21 17:57 | 25.36099 | 54.43292 | 15252 ft | 372 kts | 285° |
| 2026-04-21 17:57 | 25.36850 | 54.40551 | 15612 ft | 373 kts | 285° |
| 2026-04-21 17:57 | 25.37600 | 54.37800 | 15961 ft | 374 kts | 285° |
| 2026-04-21 17:58 | 25.38348 | 54.35038 | 16314 ft | 376 kts | 285° |
| 2026-04-21 17:58 | 25.39097 | 54.32265 | 16676 ft | 377 kts | 285° |
| 2026-04-21 17:58 | 25.39846 | 54.29481 | 17010 ft | 378 kts | 285° |
| 2026-04-21 17:58 | 25.40596 | 54.26688 | 17358 ft | 380 kts | 285° |
| 2026-04-21 17:59 | 25.41322 | 54.23877 | 17694 ft | 381 kts | 284° |
| 2026-04-21 17:59 | 25.42022 | 54.21048 | 18034 ft | 382 kts | 284° |
| 2026-04-21 17:59 | 25.42714 | 54.18206 | 18324 ft | 383 kts | 284° |
| 2026-04-21 17:59 | 25.43409 | 54.15351 | 18608 ft | 385 kts | 284° |
| 2026-04-21 18:00 | 25.44108 | 54.12494 | 18946 ft | 385 kts | 284° |
| 2026-04-21 18:00 | 25.44812 | 54.09634 | 19223 ft | 386 kts | 284° |
| 2026-04-21 18:00 | 25.45518 | 54.06759 | 19485 ft | 388 kts | 283° |
| 2026-04-21 18:00 | 25.46214 | 54.03870 | 19739 ft | 389 kts | 283° |
| 2026-04-21 18:01 | 25.46899 | 54.01005 | 19990 ft | 391 kts | 283° |
| 2026-04-21 18:01 | 25.47595 | 53.98087 | 20232 ft | 393 kts | 283° |
| 2026-04-21 18:01 | 25.48296 | 53.95155 | 20480 ft | 395 kts | 283° |
| 2026-04-21 18:01 | 25.49000 | 53.92212 | 20738 ft | 396 kts | 283° |
| 2026-04-21 18:02 | 25.49708 | 53.89256 | 20974 ft | 398 kts | 283° |
| 2026-04-21 18:02 | 25.50419 | 53.86289 | 21207 ft | 400 kts | 283° |
| 2026-04-21 18:02 | 25.51133 | 53.83310 | 21458 ft | 401 kts | 283° |
| 2026-04-21 18:02 | 25.51847 | 53.80325 | 21684 ft | 403 kts | 283° |
| 2026-04-21 18:03 | 25.52567 | 53.77314 | 21913 ft | 404 kts | 283° |
| 2026-04-21 18:03 | 25.53288 | 53.74299 | 22156 ft | 406 kts | 283° |
| 2026-04-21 18:03 | 25.54016 | 53.71270 | 22333 ft | 408 kts | 283° |
| 2026-04-21 18:03 | 25.54745 | 53.68225 | 22570 ft | 410 kts | 283° |
| 2026-04-21 18:04 | 25.55475 | 53.65170 | 22814 ft | 411 kts | 283° |
| 2026-04-21 18:04 | 25.56206 | 53.62107 | 23045 ft | 412 kts | 283° |
| 2026-04-21 18:04 | 25.56940 | 53.59032 | 23261 ft | 414 kts | 283° |
| 2026-04-21 18:04 | 25.57675 | 53.55945 | 23454 ft | 415 kts | 283° |
| 2026-04-21 18:05 | 25.58412 | 53.52847 | 23647 ft | 417 kts | 283° |
| 2026-04-21 18:05 | 25.59150 | 53.49748 | 23832 ft | 417 kts | 283° |
| 2026-04-21 18:05 | 25.59890 | 53.46636 | 24025 ft | 418 kts | 283° |
| 2026-04-21 18:05 | 25.60631 | 53.43517 | 24225 ft | 419 kts | 283° |
| 2026-04-21 18:06 | 25.61372 | 53.40391 | 24406 ft | 420 kts | 283° |
| 2026-04-21 18:06 | 25.62118 | 53.37259 | 24603 ft | 421 kts | 283° |
| 2026-04-21 18:06 | 25.62860 | 53.34118 | 24789 ft | 422 kts | 283° |
| 2026-04-21 18:06 | 25.63601 | 53.30971 | 24976 ft | 423 kts | 283° |
| 2026-04-21 18:07 | 25.64343 | 53.27817 | 25169 ft | 423 kts | 283° |
| 2026-04-21 18:07 | 25.65085 | 53.24655 | 25350 ft | 424 kts | 283° |
| 2026-04-21 18:07 | 25.65829 | 53.21488 | 25541 ft | 425 kts | 283° |
| 2026-04-21 18:07 | 25.66575 | 53.18313 | 25752 ft | 426 kts | 283° |
| 2026-04-21 18:08 | 25.67322 | 53.15129 | 25984 ft | 426 kts | 283° |
| 2026-04-21 18:08 | 25.68066 | 53.11957 | 26192 ft | 427 kts | 283° |
| 2026-04-21 18:08 | 25.68813 | 53.08768 | 26370 ft | 428 kts | 283° |
| 2026-04-21 18:08 | 25.69553 | 53.05606 | 26580 ft | 429 kts | 283° |
| 2026-04-21 18:09 | 25.70410 | 53.02432 | 26763 ft | 431 kts | 288° |
| 2026-04-21 18:09 | 25.71596 | 52.99368 | 26961 ft | 433 kts | 293° |
| 2026-04-21 18:09 | 25.72925 | 52.96362 | 27168 ft | 435 kts | 294° |
| 2026-04-21 18:09 | 25.74310 | 52.93376 | 27373 ft | 436 kts | 295° |
| 2026-04-21 18:10 | 25.75723 | 52.90394 | 27578 ft | 437 kts | 295° |
| 2026-04-21 18:10 | 25.77148 | 52.87411 | 27771 ft | 438 kts | 295° |
| 2026-04-21 18:10 | 25.78573 | 52.84427 | 27977 ft | 439 kts | 295° |
| 2026-04-21 18:10 | 25.80000 | 52.81426 | 28183 ft | 440 kts | 295° |
| 2026-04-21 18:11 | 25.81426 | 52.78414 | 28387 ft | 441 kts | 295° |
| 2026-04-21 18:11 | 25.82852 | 52.75394 | 28593 ft | 442 kts | 295° |
| 2026-04-21 18:11 | 25.84277 | 52.72370 | 28838 ft | 442 kts | 295° |
| 2026-04-21 18:11 | 25.85701 | 52.69341 | 29036 ft | 443 kts | 295° |
| 2026-04-21 18:12 | 25.87129 | 52.66302 | 29219 ft | 444 kts | 295° |
| 2026-04-21 18:12 | 25.88560 | 52.63255 | 29415 ft | 446 kts | 295° |
| 2026-04-21 18:12 | 25.89994 | 52.60200 | 29598 ft | 447 kts | 295° |
| 2026-04-21 18:12 | 25.91412 | 52.57126 | 29795 ft | 447 kts | 294° |
| 2026-04-21 18:13 | 25.92788 | 52.54022 | 29969 ft | 448 kts | 294° |
| 2026-04-21 18:13 | 25.94146 | 52.50902 | 30155 ft | 448 kts | 294° |
| 2026-04-21 18:13 | 25.95499 | 52.47784 | 30376 ft | 448 kts | 294° |
| 2026-04-21 18:13 | 25.96857 | 52.44661 | 30532 ft | 449 kts | 294° |
| 2026-04-21 18:14 | 25.99598 | 52.38405 | 30870 ft | 451 kts | 294° |
| 2026-04-21 18:14 | 26.00990 | 52.35279 | 31039 ft | 452 kts | 294° |
| 2026-04-21 18:14 | 26.02388 | 52.32150 | 31221 ft | 452 kts | 294° |
| 2026-04-21 18:15 | 26.03790 | 52.29019 | 31384 ft | 452 kts | 294° |
| 2026-04-21 18:15 | 26.05189 | 52.25891 | 31636 ft | 451 kts | 294° |
| 2026-04-21 18:15 | 26.06578 | 52.22783 | 31915 ft | 449 kts | 294° |
| 2026-04-21 18:15 | 26.07965 | 52.19673 | 32170 ft | 447 kts | 294° |
| 2026-04-21 18:16 | 26.09343 | 52.16578 | 32437 ft | 446 kts | 294° |
| 2026-04-21 18:16 | 26.10718 | 52.13485 | 32615 ft | 446 kts | 294° |
| 2026-04-21 18:16 | 26.12088 | 52.10401 | 32831 ft | 445 kts | 294° |
| 2026-04-21 18:16 | 26.13457 | 52.07318 | 33090 ft | 443 kts | 294° |
| 2026-04-21 18:17 | 26.14820 | 52.04247 | 33325 ft | 442 kts | 294° |
| 2026-04-21 18:17 | 26.16176 | 52.01188 | 33604 ft | 440 kts | 294° |
| 2026-04-21 18:17 | 26.17528 | 51.98142 | 33840 ft | 438 kts | 294° |
| 2026-04-21 18:17 | 26.18890 | 51.95110 | 34049 ft | 437 kts | 294° |
| 2026-04-21 18:18 | 26.20238 | 51.92133 | 34261 ft | 435 kts | 294° |
| 2026-04-21 18:18 | 26.21584 | 51.89124 | 34491 ft | 433 kts | 294° |
| 2026-04-21 18:18 | 26.22908 | 51.86123 | 34730 ft | 431 kts | 294° |
| 2026-04-21 18:18 | 26.24220 | 51.83132 | 34930 ft | 430 kts | 293° |
| 2026-04-21 18:19 | 26.25533 | 51.80133 | 35008 ft | 431 kts | 293° |
| 2026-04-21 18:19 | 26.26857 | 51.77141 | 35205 ft | 429 kts | 294° |
| 2026-04-21 18:19 | 26.28179 | 51.74169 | 35439 ft | 427 kts | 294° |
| 2026-04-21 18:19 | 26.29498 | 51.71214 | 35676 ft | 425 kts | 294° |
| 2026-04-21 18:20 | 26.30811 | 51.68270 | 35835 ft | 424 kts | 294° |
| 2026-04-21 18:20 | 26.33456 | 51.62343 | 35866 ft | 430 kts | 294° |
| 2026-04-21 18:21 | 26.36118 | 51.56369 | 35871 ft | 430 kts | 293° |
| 2026-04-21 18:21 | 26.38511 | 51.50298 | 35876 ft | 426 kts | 288° |
| 2026-04-21 18:22 | 26.40540 | 51.44104 | 35876 ft | 425 kts | 288° |
| 2026-04-21 18:22 | 26.42518 | 51.37883 | 35880 ft | 426 kts | 287° |
| 2026-04-21 18:23 | 26.44505 | 51.31662 | 35880 ft | 426 kts | 287° |
| 2026-04-21 18:23 | 26.46488 | 51.25436 | 35884 ft | 426 kts | 288° |
| 2026-04-21 18:24 | 26.48474 | 51.19210 | 35878 ft | 426 kts | 287° |
| 2026-04-21 18:24 | 26.50454 | 51.12979 | 35889 ft | 426 kts | 287° |
| 2026-04-21 18:25 | 26.52433 | 51.06748 | 35886 ft | 426 kts | 287° |
| 2026-04-21 18:25 | 26.54411 | 51.00513 | 35889 ft | 426 kts | 287° |
| 2026-04-21 18:26 | 26.56387 | 50.94277 | 35883 ft | 426 kts | 287° |
| 2026-04-21 18:26 | 26.58347 | 50.88079 | 35890 ft | 426 kts | 287° |
| 2026-04-21 18:27 | 26.59970 | 50.82847 | 35888 ft | 426 kts | 287° |